Izmit, Turkey
Current Conditions -  °F | °C
As of 11:50 PM on Thursday 18 Dec 2014 (Local Time) from LTBQ Reporting Station
Broken Clouds Broken Clouds  
Wind Chill: 50°   Ceiling: 1900
Heat Index: 50°   Visibility: 4mi
Dew Point: 48°   Wind: 3mph
Humidity: 94%   Direction: 320°NW
Pressure: 30.12"   Gusts: NA
Location:  40.77°N, 29.93°E
Report Text: LTBQ 182050Z 32003KT 7000 SCT012 BKN019 BKN070 10/09 Q1020 REDZ BECMG 4000 BR BKN006 BKN020
Loading
Personal Weather Stations






























Interactive Weather Map New forecast layout! Learn more

10-Day Weather Forecast

Advertisements
Track Severe Weather on mobile